Time;durP1;ratioP1;P1;durP2;ratioP2;P2;SDS_P1;SDS_P2;PMS_P1;PMS_P2;Temp;Humidity;BMP_temperature;BMP_pressure;BME280_temperature;BME280_humidity;BME280_pressure;Samples;Min_cycle;Max_cycle;Signal;HPM_P1;HPM_P2
2023/06/29 00:01:43;;;;;;;;;;;19.00;99.90;;;;;;5066025;28;20071;-57
2023/06/29 00:04:09;;;;;;;34.90;21.92;;;19.00;99.90;;;;;;5066417;28;19916;-56
2023/06/29 00:06:36;;;;;;;25.85;20.95;;;19.00;99.90;;;;;;5067013;28;20458;-54
2023/06/29 00:09:04;;;;;;;30.08;22.13;;;19.00;99.90;;;;;;5061004;28;20043;-55
2023/06/29 00:11:30;;;;;;;31.40;22.63;;;19.00;99.90;;;;;;5057853;28;20580;-55
2023/06/29 00:13:55;;;;;;;;;;;19.00;99.90;;;;;;5070713;28;20044;-56
2023/06/29 00:16:22;;;;;;;25.45;21.08;;;19.00;99.90;;;;;;5070690;28;20369;-57
2023/06/29 00:18:49;;;;;;;27.77;20.88;;;19.00;99.90;;;;;;5068557;28;20052;-59
2023/06/29 00:21:16;;;;;;;31.90;20.83;;;19.00;99.90;;;;;;5063585;28;20491;-56
2023/06/29 00:23:42;;;;;;;29.52;21.58;;;19.00;99.90;;;;;;5051823;28;20405;-57
2023/06/29 00:26:07;;;;;;;30.80;19.67;;;19.00;99.90;;;;;;5051911;28;20033;-56
2023/06/29 00:28:33;;;;;;;;;;;19.00;99.90;;;;;;5053211;28;20037;-56
2023/06/29 00:30:59;;;;;;;31.23;20.52;;;19.00;99.90;;;;;;5060652;28;20003;-58
2023/06/29 00:33:24;;;;;;;29.67;20.77;;;18.90;99.90;;;;;;5063312;28;20033;-53
2023/06/29 00:35:50;;;;;;;30.38;20.15;;;19.00;99.90;;;;;;5067905;28;20103;-58
2023/06/29 00:38:15;;;;;;;27.23;20.17;;;18.90;99.90;;;;;;5053697;28;20037;-57
2023/06/29 00:40:41;;;;;;;26.30;20.33;;;18.90;99.90;;;;;;5055263;28;20639;-55
2023/06/29 00:43:08;;;;;;;;;;;18.90;99.90;;;;;;5053297;28;20056;-55
2023/06/29 00:45:33;;;;;;;25.47;19.97;;;18.90;99.90;;;;;;5052744;28;19920;-58
2023/06/29 00:48:00;;;;;;;28.50;18.55;;;18.90;99.90;;;;;;5051262;28;20048;-54
2023/06/29 00:50:26;;;;;;;28.75;20.98;;;18.90;99.90;;;;;;5054065;28;20060;-58
2023/06/29 00:52:52;;;;;;;25.05;20.42;;;18.90;99.90;;;;;;5059805;28;20133;-53
2023/06/29 00:55:17;;;;;;;;;;;18.90;99.90;;;;;;5062440;28;20047;-56
2023/06/29 00:57:43;;;;;;;25.63;19.17;;;18.90;99.90;;;;;;5066630;28;20441;-54
2023/06/29 01:00:10;;;;;;;29.05;20.35;;;18.90;99.90;;;;;;5058331;28;20060;-55
2023/06/29 01:02:40;;;;;;;29.90;19.92;;;18.90;99.90;;;;;;5051619;28;20063;-56
2023/06/29 01:05:09;;;;;;;24.55;19.63;;;18.90;99.90;;;;;;5067291;28;20420;-57
2023/06/29 01:07:47;;;;;;;24.90;18.15;;;18.90;99.90;;;;;;5054497;28;20489;-56
2023/06/29 01:10:14;;;;;;;32.20;19.30;;;18.90;99.90;;;;;;5062610;28;20063;-60
2023/06/29 01:12:41;;;;;;;23.00;19.10;;;18.80;99.90;;;;;;5056872;28;20482;-58
2023/06/29 01:15:06;;;;;;;;;;;18.80;99.90;;;;;;5051370;28;20429;-58
2023/06/29 01:17:35;;;;;;;32.40;18.38;;;18.80;99.90;;;;;;5053605;28;20345;-57
2023/06/29 01:20:01;;;;;;;24.13;17.40;;;18.80;99.90;;;;;;5068314;28;20040;-58
2023/06/29 01:22:41;;;;;;;27.60;19.05;;;18.80;99.90;;;;;;5069152;28;20036;-60
2023/06/29 01:25:07;;;;;;;25.13;17.88;;;18.80;99.90;;;;;;5068807;28;20032;-57
2023/06/29 01:27:33;;;;;;;27.83;19.23;;;18.80;99.90;;;;;;5061841;28;20029;-55
2023/06/29 01:30:00;;;;;;;33.67;19.10;;;18.80;99.90;;;;;;5052861;28;20451;-58
2023/06/29 01:32:33;;;;;;;29.38;18.67;;;18.80;99.90;;;;;;5050638;28;20040;-55
2023/06/29 01:35:00;;;;;;;27.30;18.65;;;18.80;99.90;;;;;;5068237;28;20791;-57
2023/06/29 01:37:30;;;;;;;25.48;18.58;;;18.70;99.90;;;;;;5065778;28;20090;-58
2023/06/29 01:40:02;;;;;;;25.50;18.85;;;18.70;99.90;;;;;;5052281;28;20041;-54
2023/06/29 01:42:31;;;;;;;28.77;18.13;;;18.70;99.90;;;;;;5051154;28;20033;-56
2023/06/29 01:45:01;;;;;;;26.75;18.50;;;18.70;99.90;;;;;;5050272;28;20025;-57
2023/06/29 01:47:27;;;;;;;32.08;19.08;;;18.70;99.90;;;;;;5051758;28;20456;-54
2023/06/29 01:49:53;;;;;;;;;;;18.70;99.90;;;;;;5065664;28;20068;-56
2023/06/29 01:52:19;;;;;;;26.95;17.83;;;18.70;99.90;;;;;;5068485;28;19947;-57
2023/06/29 01:54:44;;;;;;;26.70;17.85;;;18.70;99.90;;;;;;5068239;28;20044;-56
2023/06/29 01:57:10;;;;;;;27.50;17.95;;;18.70;99.90;;;;;;5068710;28;20040;-55
2023/06/29 01:59:36;;;;;;;26.02;17.52;;;18.70;99.90;;;;;;5051966;28;20051;-59
2023/06/29 02:02:02;;;;;;;26.50;18.35;;;18.70;99.90;;;;;;5050228;28;20033;-53
2023/06/29 02:04:28;;;;;;;29.15;18.40;;;18.70;99.90;;;;;;5051416;28;20072;-61
2023/06/29 02:06:54;;;;;;;29.40;18.92;;;18.70;99.90;;;;;;5065332;28;20523;-56
2023/06/29 02:09:19;;;;;;;;;;;18.70;99.90;;;;;;5054279;28;20039;-55
2023/06/29 02:11:45;;;;;;;30.48;19.35;;;18.70;99.90;;;;;;5050405;28;20327;-56
2023/06/29 02:14:10;;;;;;;31.35;18.42;;;18.70;99.90;;;;;;5049604;28;20098;-59
2023/06/29 02:16:36;;;;;;;29.20;18.90;;;18.70;99.90;;;;;;5066371;28;20557;-58
2023/06/29 02:19:01;;;;;;;31.30;18.50;;;18.70;99.90;;;;;;5066772;28;20513;-55
2023/06/29 02:21:28;;;;;;;27.58;18.52;;;18.70;99.90;;;;;;5051920;28;20165;-56
2023/06/29 02:23:53;;;;;;;26.15;20.00;;;18.70;99.90;;;;;;5049826;28;20466;-57
2023/06/29 02:26:19;;;;;;;22.55;18.52;;;18.70;99.90;;;;;;5049865;28;20033;-58
2023/06/29 02:28:45;;;;;;;23.30;17.02;;;18.70;99.90;;;;;;5051152;28;20080;-57
2023/06/29 02:31:10;;;;;;;28.40;18.98;;;18.60;99.90;;;;;;5049251;28;20311;-56
2023/06/29 02:33:36;;;;;;;;;;;18.70;99.90;;;;;;5048578;28;20415;-57
2023/06/29 02:36:01;;;;;;;25.90;19.17;;;18.60;99.90;;;;;;5050093;28;20007;-58
2023/06/29 02:38:27;;;;;;;24.33;17.88;;;18.60;99.90;;;;;;5050440;28;20515;-59
2023/06/29 02:40:52;;;;;;;26.13;19.23;;;18.70;99.90;;;;;;5064871;28;20056;-54
2023/06/29 02:43:18;;;;;;;31.52;19.55;;;18.70;99.90;;;;;;5067122;28;20036;-56
2023/06/29 02:45:43;;;;;;;;;;;18.70;99.90;;;;;;5067634;28;20111;-57
2023/06/29 02:48:09;;;;;;;25.02;18.45;;;18.70;99.90;;;;;;5063194;28;19916;-55
2023/06/29 02:50:35;;;;;;;27.90;20.80;;;18.70;99.90;;;;;;5051082;28;20041;-54
2023/06/29 02:53:00;;;;;;;29.13;18.90;;;18.60;99.90;;;;;;5049850;28;20048;-59
2023/06/29 02:55:26;;;;;;;39.80;21.45;;;18.70;99.90;;;;;;5049178;28;20049;-58
2023/06/29 02:57:51;;;;;;;;;;;18.60;99.90;;;;;;5057493;28;20163;-54
2023/06/29 03:00:17;;;;;;;25.77;20.38;;;18.60;99.90;;;;;;5062449;28;20058;-57
2023/06/29 03:02:43;;;;;;;29.05;20.88;;;18.60;99.90;;;;;;5066738;28;20481;-56
2023/06/29 03:05:09;;;;;;;28.45;20.33;;;18.60;99.90;;;;;;5066199;28;20115;-57
2023/06/29 03:07:34;;;;;;;28.85;21.42;;;18.60;99.90;;;;;;5060777;28;20363;-59
2023/06/29 03:10:00;;;;;;;26.13;20.77;;;18.60;99.90;;;;;;5050566;28;20059;-56
2023/06/29 03:12:26;;;;;;;29.77;21.15;;;18.60;99.90;;;;;;5049530;28;20040;-58
2023/06/29 03:14:52;;;;;;;26.90;21.55;;;18.60;99.90;;;;;;5066039;28;20033;-57
2023/06/29 03:17:17;;;;;;;34.75;20.42;;;18.60;99.90;;;;;;5051839;28;20110;-56
2023/06/29 03:19:44;;;;;;;35.03;21.60;;;18.60;99.90;;;;;;5051524;28;20064;-56
2023/06/29 03:22:10;;;;;;;28.02;19.63;;;18.60;99.90;;;;;;5052866;28;20076;-55
2023/06/29 03:24:36;;;;;;;23.20;20.10;;;18.60;99.90;;;;;;5050160;28;20033;-56
2023/06/29 03:27:01;;;;;;;;;;;18.60;99.90;;;;;;5050495;28;20024;-59
2023/06/29 03:29:27;;;;;;;32.42;21.05;;;18.60;99.90;;;;;;5055039;28;19917;-55
2023/06/29 03:31:52;;;;;;;29.98;20.40;;;18.60;99.90;;;;;;5063036;28;20486;-57
2023/06/29 03:34:18;;;;;;;28.95;20.40;;;18.60;99.90;;;;;;5066678;28;20119;-57
2023/06/29 03:36:44;;;;;;;31.33;21.92;;;18.60;99.90;;;;;;5065478;28;20037;-57
2023/06/29 03:39:09;;;;;;;;;;;18.60;99.90;;;;;;5054839;28;20047;-56
2023/06/29 03:41:35;;;;;;;26.90;19.00;;;18.60;99.90;;;;;;5049423;28;19916;-56
2023/06/29 03:44:00;;;;;;;28.52;20.60;;;18.60;99.90;;;;;;5052191;28;20029;-57
2023/06/29 03:46:26;;;;;;;;;;;18.60;99.90;;;;;;5061191;28;20509;-58
2023/06/29 03:48:51;;;;;;;31.88;21.73;;;18.60;99.90;;;;;;5069501;28;19916;-56
2023/06/29 03:51:17;;;;;;;28.30;20.85;;;18.60;99.90;;;;;;5069531;28;20527;-57
2023/06/29 03:53:42;;;;;;;;;;;18.60;99.90;;;;;;5070799;28;20410;-60
2023/06/29 03:56:10;;;;;;;28.13;20.02;;;18.60;99.90;;;;;;5070769;28;19962;-55
2023/06/29 03:58:36;;;;;;;25.63;20.73;;;18.60;99.90;;;;;;5068356;28;20036;-58
2023/06/29 04:01:01;;;;;;;27.25;21.25;;;18.60;99.90;;;;;;5071046;28;20067;-57
2023/06/29 04:03:27;;;;;;;32.38;23.70;;;18.60;99.90;;;;;;5069144;28;20033;-57
2023/06/29 04:05:53;;;;;;;32.50;22.77;;;18.60;99.90;;;;;;5070862;28;20149;-58
2023/06/29 04:08:19;;;;;;;;;;;18.60;99.90;;;;;;5052708;28;20021;-55
2023/06/29 04:10:44;;;;;;;29.02;23.10;;;18.60;99.90;;;;;;5066081;28;19967;-56
2023/06/29 04:13:10;;;;;;;;;;;18.60;99.90;;;;;;5070914;28;20039;-57
2023/06/29 04:15:35;;;;;;;32.25;23.42;;;18.60;99.90;;;;;;5070430;28;19920;-54
2023/06/29 04:18:01;;;;;;;29.45;22.50;;;18.70;99.90;;;;;;5068631;28;20118;-54
2023/06/29 04:20:28;;;;;;;;;;;18.70;99.90;;;;;;5070548;28;20647;-54
2023/06/29 04:22:55;;;;;;;36.03;23.27;;;18.70;99.90;;;;;;5070496;28;20135;-57
2023/06/29 04:25:20;;;;;;;29.95;22.20;;;18.70;99.90;;;;;;5069902;28;20146;-58
2023/06/29 04:27:46;;;;;;;36.28;25.20;;;18.70;99.90;;;;;;5068390;28;20086;-57
2023/06/29 04:30:12;;;;;;;41.70;25.85;;;18.70;99.90;;;;;;5063437;28;20067;-54
2023/06/29 04:32:38;;;;;;;39.78;26.77;;;18.80;99.90;;;;;;5064693;28;20033;-55
2023/06/29 04:35:05;;;;;;;;;;;18.80;99.90;;;;;;5064750;28;20032;-54
2023/06/29 04:37:36;;;;;;;34.88;24.48;;;18.80;99.90;;;;;;5061188;28;20333;-57
2023/06/29 04:40:04;;;;;;;35.33;24.90;;;18.80;99.90;;;;;;5054627;28;20059;-57
2023/06/29 04:42:30;;;;;;;36.35;24.25;;;18.80;99.90;;;;;;5060447;28;20131;-55
2023/06/29 04:44:56;;;;;;;39.38;25.55;;;18.90;99.90;;;;;;5063718;28;20521;-56
2023/06/29 04:47:22;;;;;;;36.20;25.60;;;18.90;99.90;;;;;;5061951;28;20039;-57
2023/06/29 04:49:52;;;;;;;31.13;23.67;;;18.90;99.90;;;;;;5059289;28;20051;-56
2023/06/29 04:52:21;;;;;;;30.40;23.95;;;19.00;99.90;;;;;;5058204;28;20044;-56
2023/06/29 04:54:47;;;;;;;35.55;24.73;;;19.00;99.90;;;;;;5068508;28;20041;-54
2023/06/29 04:57:12;;;;;;;31.10;24.80;;;19.10;99.90;;;;;;5062490;28;20039;-55
2023/06/29 04:59:38;;;;;;;49.17;25.63;;;19.10;99.90;;;;;;5051334;28;20044;-59
2023/06/29 05:02:04;;;;;;;;;;;19.20;99.90;;;;;;5056197;28;20064;-58
2023/06/29 05:04:29;;;;;;;38.03;25.05;;;19.20;99.90;;;;;;5067926;28;20324;-54
2023/06/29 05:06:55;;;;;;;;;;;19.20;99.90;;;;;;5061977;28;20033;-57
2023/06/29 05:09:20;;;;;;;32.72;24.33;;;19.30;99.90;;;;;;5068672;28;19920;-58
2023/06/29 05:11:46;;;;;;;35.92;25.55;;;19.30;99.90;;;;;;5069647;28;20587;-56
2023/06/29 05:14:11;;;;;;;40.92;25.33;;;19.30;99.90;;;;;;5051994;28;20094;-54
2023/06/29 05:16:37;;;;;;;;;;;19.30;99.90;;;;;;5066431;28;20519;-54
2023/06/29 05:19:03;;;;;;;36.10;24.75;;;19.30;99.90;;;;;;5052171;28;19917;-58
2023/06/29 05:21:28;;;;;;;;;;;19.40;99.90;;;;;;5053096;28;20278;-54
2023/06/29 05:23:54;;;;;;;33.67;24.48;;;19.40;99.90;;;;;;5063296;28;19944;-60
2023/06/29 05:26:20;;;;;;;33.30;24.83;;;19.40;99.90;;;;;;5068161;28;20474;-55
2023/06/29 05:28:45;;;;;;;33.60;23.23;;;19.50;99.90;;;;;;5055359;28;20349;-55
2023/06/29 05:31:11;;;;;;;37.28;24.40;;;19.50;99.90;;;;;;5051166;28;20093;-53
2023/06/29 05:33:36;;;;;;;;;;;19.50;99.90;;;;;;5038517;28;20040;-56
2023/06/29 05:36:02;;;;;;;35.22;24.33;;;19.60;99.90;;;;;;5051776;28;20377;-56
2023/06/29 05:38:29;;;;;;;;;;;19.60;99.90;;;;;;5059305;28;20039;-57
2023/06/29 05:40:55;;;;;;;31.52;23.38;;;19.70;99.90;;;;;;5051101;28;19982;-57
2023/06/29 05:43:22;;;;;;;33.17;23.75;;;19.70;99.90;;;;;;5064910;28;20205;-57
2023/06/29 05:45:48;;;;;;;37.92;24.35;;;19.70;99.90;;;;;;5067621;28;20405;-54
2023/06/29 05:48:13;;;;;;;40.13;25.15;;;19.80;99.90;;;;;;5063749;28;20033;-54
2023/06/29 05:50:39;;;;;;;38.03;25.88;;;19.80;99.90;;;;;;5056466;28;20040;-57
2023/06/29 05:53:04;;;;;;;45.58;25.27;;;19.80;99.90;;;;;;5060131;28;20546;-57
2023/06/29 05:55:30;;;;;;;36.10;25.77;;;19.80;99.90;;;;;;5060753;28;20040;-56
2023/06/29 05:57:55;;;;;;;;;;;19.80;99.90;;;;;;5057046;28;20052;-55
2023/06/29 06:00:21;;;;;;;36.85;26.67;;;19.90;99.90;;;;;;5058547;28;20020;-59
2023/06/29 06:02:46;;;;;;;;;;;19.90;99.90;;;;;;5064749;28;20521;-54
2023/06/29 06:05:12;;;;;;;36.35;25.55;;;19.90;99.90;;;;;;5061977;28;20342;-54
2023/06/29 06:07:39;;;;;;;;;;;20.00;99.90;;;;;;5061469;28;20056;-56
2023/06/29 06:10:05;;;;;;;42.15;25.88;;;20.00;99.90;;;;;;5060938;28;19916;-56
2023/06/29 06:12:31;;;;;;;39.53;28.00;;;20.10;99.90;;;;;;5056152;28;20040;-53
2023/06/29 06:14:57;;;;;;;30.55;25.58;;;20.10;99.90;;;;;;5060598;28;20039;-57
2023/06/29 06:17:22;;;;;;;33.90;25.75;;;20.10;99.90;;;;;;5060067;28;20391;-61
2023/06/29 06:19:48;;;;;;;;;;;20.20;99.90;;;;;;5061399;28;20036;-59
2023/06/29 06:22:14;;;;;;;39.28;27.60;;;20.20;99.90;;;;;;5056488;28;20308;-56
2023/06/29 06:24:39;;;;;;;;;;;20.20;99.90;;;;;;5056264;28;20033;-55
2023/06/29 06:27:05;;;;;;;33.67;25.30;;;20.20;99.90;;;;;;5056493;28;19916;-53
2023/06/29 06:29:30;;;;;;;;;;;20.20;99.90;;;;;;5062789;28;20186;-56
2023/06/29 06:31:56;;;;;;;36.17;26.65;;;20.20;99.90;;;;;;5056695;28;19935;-56
2023/06/29 06:34:21;;;;;;;;;;;20.20;99.90;;;;;;5064790;28;20036;-54
2023/06/29 06:36:48;;;;;;;37.15;25.85;;;20.20;99.90;;;;;;5059509;28;19999;-54
2023/06/29 06:39:18;;;;;;;41.28;25.70;;;20.20;99.90;;;;;;5060450;28;20047;-55
2023/06/29 06:41:43;;;;;;;40.90;26.08;;;20.20;99.90;;;;;;5060090;28;20918;-59
2023/06/29 06:44:09;;;;;;;35.85;26.02;;;20.20;99.90;;;;;;5061151;28;20034;-58
2023/06/29 06:46:35;;;;;;;;;;;20.20;99.90;;;;;;5057722;28;20036;-56
2023/06/29 06:49:00;;;;;;;34.30;26.20;;;20.20;99.90;;;;;;5061755;28;20387;-53
2023/06/29 06:51:27;;;;;;;33.35;26.63;;;20.30;99.90;;;;;;5065020;28;20036;-55
2023/06/29 06:53:54;;;;;;;36.13;26.73;;;20.30;99.90;;;;;;5060381;28;20162;-56
2023/06/29 06:56:20;;;;;;;34.55;26.55;;;20.40;99.90;;;;;;5059289;28;20032;-56
2023/06/29 06:58:45;;;;;;;;;;;20.40;99.90;;;;;;5059142;28;20097;-56
2023/06/29 07:01:13;;;;;;;33.38;26.27;;;20.40;99.90;;;;;;5053043;28;19920;-54
2023/06/29 07:03:39;;;;;;;36.15;27.17;;;20.40;99.90;;;;;;5054679;28;20051;-53
2023/06/29 07:06:04;;;;;;;;;;;20.40;99.90;;;;;;5058884;28;20032;-55
2023/06/29 07:08:32;;;;;;;32.95;25.65;;;20.40;99.90;;;;;;5055220;28;19917;-55
2023/06/29 07:10:58;;;;;;;40.17;26.17;;;20.50;99.90;;;;;;5064253;28;20047;-55
2023/06/29 07:13:24;;;;;;;;;;;20.50;99.90;;;;;;5062205;28;20044;-56
2023/06/29 07:15:49;;;;;;;40.35;27.23;;;20.60;99.90;;;;;;5052305;28;19932;-55
2023/06/29 07:18:15;;;;;;;;;;;20.60;99.90;;;;;;5054575;28;20037;-53
2023/06/29 07:20:41;;;;;;;42.38;28.40;;;20.70;99.90;;;;;;5053123;28;20384;-52
2023/06/29 07:23:06;;;;;;;;;;;20.70;99.90;;;;;;5049264;28;20497;-54
2023/06/29 07:25:32;;;;;;;41.28;27.00;;;20.70;99.90;;;;;;5061532;28;19916;-55
2023/06/29 07:27:57;;;;;;;;;;;20.80;99.90;;;;;;5060016;28;21298;-56
2023/06/29 07:30:23;;;;;;;43.03;28.38;;;20.80;99.90;;;;;;5054751;28;19928;-53
2023/06/29 07:32:49;;;;;;;;;;;20.90;99.90;;;;;;5048709;28;20081;-54
2023/06/29 07:35:14;;;;;;;36.78;28.38;;;20.90;99.90;;;;;;5052916;28;19959;-51
2023/06/29 07:37:40;;;;;;;;;;;20.90;99.90;;;;;;5056917;28;20389;-53
2023/06/29 07:40:06;;;;;;;42.15;28.90;;;21.00;99.90;;;;;;5053488;28;19924;-52
2023/06/29 07:42:32;;;;;;;;;;;21.00;99.90;;;;;;5062586;28;20029;-52
2023/06/29 07:44:57;;;;;;;44.10;28.95;;;21.10;99.90;;;;;;5051174;28;19928;-52
2023/06/29 07:47:23;;;;;;;;;;;21.10;99.90;;;;;;5052241;28;20037;-54
2023/06/29 07:49:48;;;;;;;47.35;29.00;;;21.10;99.90;;;;;;5065410;28;20006;-56
2023/06/29 07:52:14;;;;;;;;;;;21.10;99.90;;;;;;5063554;28;20241;-52
2023/06/29 07:54:39;;;;;;;40.25;29.77;;;21.10;99.90;;;;;;5053077;28;20350;-51
2023/06/29 07:57:05;;;;;;;;;;;21.20;99.90;;;;;;5059472;28;20534;-55
2023/06/29 07:59:30;;;;;;;40.22;29.08;;;21.20;99.90;;;;;;5056843;28;20005;-51
2023/06/29 08:01:56;;;;;;;;;;;21.30;99.90;;;;;;5062555;28;20047;-53
2023/06/29 08:04:21;;;;;;;38.85;30.35;;;21.30;99.90;;;;;;5063785;28;21719;-53
2023/06/29 08:06:47;;;;;;;;;;;21.40;99.90;;;;;;5060550;28;20033;-55
2023/06/29 08:09:13;;;;;;;41.83;29.38;;;21.40;99.90;;;;;;5054723;28;20405;-52
2023/06/29 08:11:39;;;;;;;39.88;29.08;;;21.50;99.90;;;;;;5048916;28;20483;-52
2023/06/29 08:14:05;;;;;;;;;;;21.50;99.90;;;;;;5058378;28;20123;-54
2023/06/29 08:16:30;;;;;;;42.38;28.40;;;21.50;99.90;;;;;;5066358;28;20399;-52
2023/06/29 08:18:56;;;;;;;;;;;21.60;99.90;;;;;;5066493;28;20032;-55
2023/06/29 08:21:22;;;;;;;43.10;28.23;;;21.60;99.90;;;;;;5058438;28;20316;-52
2023/06/29 08:23:49;;;;;;;;;;;21.70;99.90;;;;;;5066004;28;20151;-55
2023/06/29 08:26:15;;;;;;;;;;;21.70;99.90;;;;;;5052687;28;19992;-52
2023/06/29 08:28:41;;;;;;;40.58;28.67;;;21.70;99.90;;;;;;5052037;28;20003;-56
2023/06/29 08:31:06;;;;;;;;;;;21.60;99.90;;;;;;5059763;28;20037;-51
2023/06/29 08:33:32;;;;;;;43.58;29.48;;;21.70;99.90;;;;;;5070184;28;19927;-52
2023/06/29 08:35:57;;;;;;;42.17;30.02;;;21.70;99.90;;;;;;5066521;28;20049;-54
2023/06/29 08:38:23;;;;;;;;;;;21.70;99.90;;;;;;5068778;28;20131;-54
2023/06/29 08:40:49;;;;;;;39.42;29.65;;;21.70;99.90;;;;;;5061375;28;20027;-52
2023/06/29 08:43:15;;;;;;;;;;;21.70;99.90;;;;;;5057619;28;20094;-53
2023/06/29 08:45:42;;;;;;;44.05;28.92;;;21.70;99.90;;;;;;5062664;28;19956;-52
2023/06/29 08:48:08;;;;;;;41.15;29.45;;;21.70;99.90;;;;;;5065668;28;20044;-55
2023/06/29 08:50:36;;;;;;;42.13;30.98;;;21.70;99.90;;;;;;5055635;28;20155;-56
2023/06/29 08:53:03;;;;;;;37.03;28.30;;;21.80;99.90;;;;;;5065329;28;20068;-58
2023/06/29 08:55:32;;;;;;;42.20;28.77;;;21.80;99.90;;;;;;5056659;28;20036;-54
2023/06/29 08:57:57;;;;;;;43.17;28.45;;;21.90;99.90;;;;;;5064061;28;20044;-51
2023/06/29 09:00:23;;;;;;;;;;;22.10;99.90;;;;;;5063825;28;20052;-54
2023/06/29 09:02:53;;;;;;;34.88;25.80;;;22.20;99.90;;;;;;5052210;28;19917;-53
2023/06/29 09:05:19;;;;;;;36.35;25.35;;;22.20;99.90;;;;;;5052278;28;20040;-57
2023/06/29 09:07:45;;;;;;;35.70;26.42;;;22.30;99.90;;;;;;5063367;28;20512;-56
2023/06/29 09:10:11;;;;;;;;;;;22.40;99.90;;;;;;5057299;28;20139;-52
2023/06/29 09:12:37;;;;;;;36.53;26.42;;;22.40;99.90;;;;;;5051758;28;20019;-51
2023/06/29 09:15:08;;;;;;;;;;;22.50;99.90;;;;;;5053366;28;20036;-52
2023/06/29 09:17:34;;;;;;;36.60;26.52;;;22.60;99.90;;;;;;5065893;28;20290;-53
2023/06/29 09:20:13;;;;;;;39.97;28.10;;;22.70;99.90;;;;;;5069081;28;20036;-52
2023/06/29 09:22:39;;;;;;;36.13;26.55;;;22.70;99.90;;;;;;5051455;28;20192;-53
2023/06/29 09:25:06;;;;;;;33.38;25.30;;;22.70;99.90;;;;;;5063731;28;20037;-52
2023/06/29 09:27:33;;;;;;;34.10;25.65;;;22.70;99.90;;;;;;5062009;28;20048;-55
2023/06/29 09:30:00;;;;;;;34.75;24.50;;;22.70;99.90;;;;;;5057387;28;20033;-51
2023/06/29 09:32:28;;;;;;;37.03;25.58;;;22.70;99.90;;;;;;5063736;28;20109;-55
2023/06/29 09:34:54;;;;;;;36.53;26.83;;;22.70;99.90;;;;;;5052670;28;20047;-54
2023/06/29 09:37:20;;;;;;;;;;;22.70;99.90;;;;;;5054590;28;20041;-55
2023/06/29 09:40:09;;;;;;;35.85;24.60;;;22.70;99.90;;;;;;5056751;28;19921;-52
2023/06/29 09:42:38;;;;;;;37.40;24.65;;;22.80;99.90;;;;;;5053978;28;20625;-53
2023/06/29 09:45:07;;;;;;;36.63;26.20;;;22.70;99.90;;;;;;5059521;28;20150;-53
2023/06/29 09:47:33;;;;;;;33.33;25.80;;;22.80;99.90;;;;;;5057701;28;20435;-54
2023/06/29 09:49:58;;;;;;;;;;;22.90;99.90;;;;;;5063921;28;20044;-53
2023/06/29 09:52:24;;;;;;;35.95;25.35;;;22.90;99.90;;;;;;5061853;28;19923;-54
2023/06/29 09:54:49;;;;;;;30.08;24.20;;;22.80;99.90;;;;;;5064653;28;20543;-54
2023/06/29 09:57:17;;;;;;;32.75;25.92;;;22.80;99.90;;;;;;5057828;28;20040;-56
2023/06/29 09:59:45;;;;;;;34.13;26.10;;;22.70;99.90;;;;;;5050408;28;20406;-55
2023/06/29 10:02:14;;;;;;;34.38;24.40;;;22.60;99.90;;;;;;5062009;28;20036;-53
2023/06/29 10:04:41;;;;;;;32.90;24.63;;;22.50;99.90;;;;;;5060535;28;20111;-53
2023/06/29 10:07:16;;;;;;;33.70;25.55;;;22.40;99.90;;;;;;5056971;28;20032;-52
2023/06/29 10:09:46;;;;;;;31.75;24.00;;;22.40;99.90;;;;;;5059867;28;20133;-55
2023/06/29 10:12:12;;;;;;;36.28;25.00;;;22.40;99.90;;;;;;5053409;28;20043;-54
2023/06/29 10:14:41;;;;;;;31.00;23.60;;;22.30;99.90;;;;;;5057348;28;20052;-55
2023/06/29 10:17:11;;;;;;;32.75;25.00;;;22.30;99.90;;;;;;5059615;28;20571;-54
2023/06/29 10:19:39;;;;;;;34.53;25.17;;;22.30;99.90;;;;;;5055978;28;20529;-54
2023/06/29 10:22:11;;;;;;;32.42;24.90;;;22.30;99.90;;;;;;5053867;28;20112;-53
2023/06/29 10:24:41;;;;;;;34.58;24.05;;;22.30;99.90;;;;;;5062613;28;20040;-54
2023/06/29 10:27:09;;;;;;;30.10;24.15;;;22.20;99.90;;;;;;5060704;28;20037;-54
2023/06/29 10:29:48;;;;;;;31.48;24.05;;;22.10;99.90;;;;;;5067800;28;20036;-51
2023/06/29 10:32:32;;;;;;;38.95;25.38;;;22.10;99.90;;;;;;5057759;28;20044;-53
2023/06/29 10:35:12;;;;;;;38.83;26.77;;;22.00;99.90;;;;;;5051708;28;20072;-52
2023/06/29 10:37:45;;;;;;;36.28;26.20;;;22.00;99.90;;;;;;5057757;28;20032;-55
2023/06/29 10:40:11;;;;;;;31.63;24.80;;;21.90;99.90;;;;;;5055851;28;20037;-51
2023/06/29 10:42:36;;;;;;;;;;;21.90;99.90;;;;;;5053919;28;20033;-52
2023/06/29 10:45:22;;;;;;;39.80;26.55;;;21.80;99.90;;;;;;5050536;28;19939;-52
2023/06/29 10:47:57;;;;;;;38.55;26.80;;;21.80;99.90;;;;;;5057634;28;20036;-56
2023/06/29 10:50:27;;;;;;;37.60;28.90;;;21.80;99.90;;;;;;5062881;28;20562;-51
2023/06/29 10:52:58;;;;;;;37.92;27.83;;;21.70;99.90;;;;;;5058477;28;20520;-54
2023/06/29 10:55:31;;;;;;;40.13;29.58;;;21.70;99.90;;;;;;5057737;28;20844;-56
2023/06/29 10:58:06;;;;;;;50.50;28.58;;;21.70;99.90;;;;;;5052908;28;20037;-51
2023/06/29 11:00:32;;;;;;;44.63;29.58;;;21.80;99.90;;;;;;5055349;28;20144;-55
2023/06/29 11:02:59;;;;;;;;;;;21.90;99.90;;;;;;5058680;28;20115;-51
2023/06/29 11:05:24;;;;;;;40.13;29.88;;;22.00;99.90;;;;;;5051406;28;20203;-55
2023/06/29 11:07:51;;;;;;;;;;;22.10;99.90;;;;;;5050118;28;20122;-51
2023/06/29 11:10:21;;;;;;;41.90;32.33;;;22.20;99.90;;;;;;5051275;28;19920;-52
2023/06/29 11:12:49;;;;;;;40.65;30.30;;;22.30;99.90;;;;;;5056544;28;20346;-51
2023/06/29 11:15:18;;;;;;;39.05;28.83;;;22.40;99.90;;;;;;5048224;28;20045;-55
2023/06/29 11:17:45;;;;;;;37.15;27.25;;;22.50;99.90;;;;;;5058054;28;20086;-57
2023/06/29 11:20:15;;;;;;;35.65;26.58;;;22.50;99.90;;;;;;5052535;28;20477;-52
2023/06/29 11:22:41;;;;;;;33.50;26.00;;;22.60;99.90;;;;;;5054176;28;20028;-51
2023/06/29 11:25:09;;;;;;;31.63;25.30;;;22.60;99.90;;;;;;5066618;28;20033;-51
2023/06/29 11:27:35;;;;;;;38.92;25.00;;;22.60;99.90;;;;;;5064270;28;20032;-51
2023/06/29 11:30:04;;;;;;;;;;;22.80;99.90;;;;;;5067154;28;20493;-51
2023/06/29 11:32:30;;;;;;;31.67;23.55;;;22.80;99.90;;;;;;5064691;28;19951;-50
2023/06/29 11:34:56;;;;;;;;;;;22.90;99.90;;;;;;5059455;28;20033;-52
2023/06/29 11:37:23;;;;;;;31.60;23.20;;;22.90;99.90;;;;;;5051859;28;19975;-51
2023/06/29 11:39:49;;;;;;;30.52;23.63;;;23.00;99.90;;;;;;5058415;28;20497;-54
2023/06/29 11:42:16;;;;;;;;;;;23.10;99.90;;;;;;5058180;28;20075;-54
2023/06/29 11:44:42;;;;;;;30.00;23.67;;;23.10;99.90;;;;;;5052141;28;19920;-56
2023/06/29 11:47:08;;;;;;;;;;;23.30;99.90;;;;;;5048589;28;20536;-54
2023/06/29 11:49:34;;;;;;;35.22;24.20;;;23.30;99.90;;;;;;5064975;28;20026;-51
2023/06/29 11:52:01;;;;;;;;;;;23.50;99.90;;;;;;5058210;28;20059;-51
2023/06/29 11:54:29;;;;;;;29.95;24.80;;;23.70;99.90;;;;;;5060314;28;19974;-50
2023/06/29 11:56:55;;;;;;;32.90;25.48;;;23.70;99.90;;;;;;5061702;28;20044;-51
2023/06/29 11:59:21;;;;;;;31.35;25.23;;;23.80;99.90;;;;;;5060724;28;20041;-52
2023/06/29 12:01:47;;;;;;;31.08;25.27;;;24.00;99.90;;;;;;5057082;28;20408;-50
2023/06/29 12:04:13;;;;;;;35.90;25.67;;;24.20;99.90;;;;;;5057987;28;20050;-52
2023/06/29 12:06:57;;;;;;;32.15;22.63;;;24.20;99.90;;;;;;5069031;28;20033;-51
2023/06/29 12:09:32;;;;;;;31.15;24.00;;;24.30;99.90;;;;;;5067583;28;20040;-51
2023/06/29 12:11:59;;;;;;;25.70;20.35;;;24.30;99.90;;;;;;5062075;28;20584;-50
2023/06/29 12:14:34;;;;;;;30.25;20.50;;;24.30;99.90;;;;;;5066101;28;20066;-51
2023/06/29 12:17:00;;;;;;;24.67;20.75;;;24.30;99.90;;;;;;5062660;28;20611;-55
2023/06/29 12:19:31;;;;;;;28.70;19.98;;;24.20;99.90;;;;;;5063134;28;20123;-53
2023/06/29 12:21:56;;;;;;;26.35;21.58;;;24.20;99.90;;;;;;5068124;28;20374;-53
2023/06/29 12:24:25;;;;;;;25.95;20.38;;;24.20;99.90;;;;;;5059882;28;20036;-50
2023/06/29 12:26:50;;;;;;;30.70;19.58;;;24.20;99.90;;;;;;5062552;28;20444;-50
2023/06/29 12:29:16;;;;;;;21.75;18.58;;;24.20;99.90;;;;;;5061496;28;20140;-49
2023/06/29 12:31:41;;;;;;;22.45;18.70;;;24.20;99.90;;;;;;5058406;28;20116;-50
2023/06/29 12:34:07;;;;;;;24.73;18.15;;;24.30;99.90;;;;;;5063251;28;20432;-50
2023/06/29 12:36:33;;;;;;;23.60;18.23;;;24.30;99.90;;;;;;5060821;28;20036;-53
2023/06/29 12:38:58;;;;;;;28.48;17.83;;;24.30;99.90;;;;;;5058965;28;20479;-50
2023/06/29 12:41:24;;;;;;;21.48;18.20;;;24.30;99.90;;;;;;5063625;28;20135;-51
2023/06/29 12:43:50;;;;;;;24.30;18.20;;;24.20;99.90;;;;;;5063302;28;20037;-54
2023/06/29 12:46:15;;;;;;;24.20;18.50;;;24.20;99.90;;;;;;5065856;28;20045;-52